Time;durP1;ratioP1;P1;durP2;ratioP2;P2;SDS_P1;SDS_P2;PMS_P1;PMS_P2;Temp;Humidity;BMP_temperature;BMP_pressure;BME280_temperature;BME280_humidity;BME280_pressure;Samples;Min_cycle;Max_cycle;Signal;HPM_P1;HPM_P2
2022/04/21 00:02:22;;;;;;;0.88;0.70;;;11.50;55.50;;;;;;4995005;28;20400;-71
2022/04/21 00:04:48;;;;;;;0.60;0.60;;;11.50;55.60;;;;;;4993934;28;20039;-71
2022/04/21 00:07:13;;;;;;;0.50;0.50;;;11.40;55.50;;;;;;4994789;28;20038;-71
2022/04/21 00:09:39;;;;;;;0.40;0.40;;;11.40;55.60;;;;;;4994891;28;20034;-72
2022/04/21 00:12:05;;;;;;;0.43;0.40;;;11.40;55.60;;;;;;4994894;28;20043;-71
2022/04/21 00:14:31;;;;;;;0.55;0.55;;;11.40;55.70;;;;;;4995225;28;20062;-71
2022/04/21 00:16:57;;;;;;;0.68;0.60;;;11.40;55.70;;;;;;4994834;28;20085;-71
2022/04/21 00:19:23;;;;;;;0.30;0.30;;;11.30;55.80;;;;;;4994963;28;20077;-71
2022/04/21 00:24:29;;;;;;;0.43;0.40;;;11.20;55.80;;;;;;4994518;28;20065;-71
2022/04/21 00:26:55;;;;;;;0.85;0.57;;;11.20;55.90;;;;;;4994738;28;20117;-71
2022/04/21 00:29:21;;;;;;;0.88;0.60;;;11.20;56.00;;;;;;4993204;28;20034;-71
2022/04/21 00:31:46;;;;;;;0.40;0.40;;;11.10;56.00;;;;;;5009817;28;20038;-72
2022/04/21 00:34:13;;;;;;;0.45;0.45;;;11.10;56.00;;;;;;4995037;28;20038;-71
2022/04/21 00:36:39;;;;;;;0.30;0.30;;;11.00;56.10;;;;;;4994488;28;20146;-71
2022/04/21 00:39:05;;;;;;;0.60;0.40;;;11.00;56.20;;;;;;4994800;28;20469;-71
2022/04/21 00:41:30;;;;;;;1.05;0.68;;;11.10;56.40;;;;;;4993093;28;20043;-72
2022/04/21 00:43:56;;;;;;;0.60;0.60;;;11.00;56.40;;;;;;4994883;28;20057;-71
2022/04/21 00:46:22;;;;;;;0.47;0.47;;;11.00;56.50;;;;;;4994361;28;20405;-69
2022/04/21 00:48:49;;;;;;;2.88;0.50;;;11.00;56.50;;;;;;4993025;28;20046;-70
2022/04/21 00:51:16;;;;;;;0.40;0.40;;;10.90;56.50;;;;;;4994832;28;20042;-69
2022/04/21 00:53:43;;;;;;;0.50;0.50;;;10.90;56.60;;;;;;4994863;28;20046;-70
2022/04/21 00:56:10;;;;;;;0.60;0.60;;;10.80;56.60;;;;;;4992951;28;20043;-69
2022/04/21 00:58:37;;;;;;;0.82;0.57;;;10.90;56.70;;;;;;5009662;28;20042;-69
2022/04/21 01:02:46;;;;;;;0.95;0.80;;;10.80;56.80;;;;;;4990662;28;20061;-70
2022/04/21 01:03:49;;;;;;;0.75;0.75;;;10.80;56.80;;;;;;5005613;28;20074;-70
2022/04/21 01:06:15;;;;;;;0.60;0.50;;;10.80;56.90;;;;;;4994142;28;20069;-69
2022/04/21 01:08:42;;;;;;;0.73;0.60;;;10.70;57.00;;;;;;4994160;28;20038;-70
2022/04/21 01:11:08;;;;;;;0.93;0.60;;;10.70;57.00;;;;;;5009176;28;20078;-69
2022/04/21 01:13:35;;;;;;;0.95;0.70;;;10.70;57.20;;;;;;5009054;28;20077;-70
2022/04/21 01:16:01;;;;;;;0.82;0.60;;;10.70;57.30;;;;;;5009439;28;20046;-70
2022/04/21 01:18:27;;;;;;;0.75;0.60;;;10.60;57.30;;;;;;4994031;28;20069;-70
2022/04/21 01:20:53;;;;;;;0.50;0.50;;;10.60;57.50;;;;;;4993128;28;20505;-69
2022/04/21 01:23:19;;;;;;;1.17;0.80;;;10.60;57.50;;;;;;4994239;28;20066;-69
2022/04/21 01:25:45;;;;;;;0.93;0.60;;;10.60;57.60;;;;;;5008889;28;20125;-69
2022/04/21 01:28:12;;;;;;;1.17;0.70;;;10.50;57.70;;;;;;4992509;28;20093;-70
2022/04/21 01:30:39;;;;;;;0.50;0.43;;;10.50;57.90;;;;;;5008787;28;20488;-69
2022/04/21 01:33:05;;;;;;;0.80;0.60;;;10.60;58.10;;;;;;4993788;28;20045;-69
2022/04/21 01:35:31;;;;;;;1.10;0.68;;;10.40;58.00;;;;;;5008418;28;20042;-69
2022/04/21 01:43:12;;;;;;;0.85;0.60;;;10.40;58.20;;;;;;4993640;28;20378;-69
2022/04/21 01:45:38;;;;;;;0.70;0.50;;;10.40;58.90;;;;;;4993776;28;20041;-69
2022/04/21 01:48:05;;;;;;;1.17;0.70;;;10.30;58.30;;;;;;5008486;28;20045;-69
2022/04/21 01:50:31;;;;;;;0.63;0.50;;;10.40;58.40;;;;;;4994081;28;20042;-70
2022/04/21 01:52:58;;;;;;;0.80;0.60;;;10.40;58.50;;;;;;4991932;28;20133;-69
2022/04/21 01:55:24;;;;;;;0.60;0.57;;;10.30;58.50;;;;;;4993253;28;20050;-69
2022/04/21 01:57:50;;;;;;;0.50;0.50;;;10.30;58.60;;;;;;4993342;28;20062;-69
2022/04/21 02:00:16;;;;;;;1.27;0.70;;;10.20;58.70;;;;;;4991751;28;20147;-70
2022/04/21 02:02:42;;;;;;;1.60;0.70;;;10.30;59.50;;;;;;4993451;28;20045;-69
2022/04/21 02:05:09;;;;;;;0.85;0.60;;;10.20;58.90;;;;;;4991910;28;20042;-70
2022/04/21 02:07:36;;;;;;;0.40;0.40;;;10.20;59.00;;;;;;5008180;28;20129;-69
2022/04/21 02:10:05;;;;;;;0.85;0.60;;;10.10;59.00;;;;;;4993309;28;20405;-69
2022/04/21 02:12:31;;;;;;;0.70;0.60;;;10.10;59.20;;;;;;5007976;28;20133;-69
2022/04/21 02:14:57;;;;;;;0.50;0.40;;;10.10;59.90;;;;;;4993322;28;20145;-69
2022/04/21 02:17:25;;;;;;;0.70;0.63;;;10.10;59.40;;;;;;4992977;28;20046;-69
2022/04/21 02:19:51;;;;;;;1.60;0.68;;;10.10;59.50;;;;;;5007968;28;20489;-69
2022/04/21 02:22:17;;;;;;;0.40;0.40;;;10.10;59.60;;;;;;5007817;28;20038;-70
2022/04/21 02:24:43;;;;;;;0.47;0.40;;;10.00;60.20;;;;;;4991864;28;20551;-70
2022/04/21 02:27:09;;;;;;;0.65;0.65;;;10.00;59.70;;;;;;5008146;28;20077;-70
2022/04/21 02:29:34;;;;;;;0.38;0.38;;;9.90;59.80;;;;;;5007991;28;20038;-70
2022/04/21 02:32:01;;;;;;;0.68;0.68;;;9.90;60.00;;;;;;4991655;28;20042;-69
2022/04/21 02:34:29;;;;;;;0.50;0.50;;;9.80;60.10;;;;;;5007692;28;20057;-69
2022/04/21 02:36:55;;;;;;;0.82;0.55;;;9.90;60.40;;;;;;4992846;28;20133;-69
2022/04/21 02:39:21;;;;;;;0.80;0.60;;;9.80;60.40;;;;;;4992681;28;20034;-69
2022/04/21 02:41:46;;;;;;;0.52;0.40;;;9.70;60.50;;;;;;4993043;28;20640;-69
2022/04/21 02:44:12;;;;;;;0.60;0.60;;;9.60;60.60;;;;;;4991696;28;20057;-69
2022/04/21 02:46:38;;;;;;;0.40;0.40;;;9.60;60.70;;;;;;4992449;28;20050;-69
2022/04/21 02:49:04;;;;;;;0.68;0.68;;;9.60;60.80;;;;;;4992633;28;20051;-69
2022/04/21 02:51:30;;;;;;;0.73;0.57;;;9.60;60.90;;;;;;4992542;28;20054;-69
2022/04/21 02:59:18;;;;;;;0.32;0.30;;;9.50;61.10;;;;;;4992450;28;20034;-69
2022/04/21 03:01:44;;;;;;;0.63;0.52;;;9.50;61.10;;;;;;4992473;28;20576;-69
2022/04/21 03:04:10;;;;;;;0.95;0.50;;;9.50;61.10;;;;;;4992458;28;20041;-69
2022/04/21 03:06:35;;;;;;;0.30;0.25;;;9.50;61.20;;;;;;4992376;28;20046;-69
2022/04/21 03:09:01;;;;;;;0.30;0.30;;;9.40;61.20;;;;;;4992731;28;20480;-69
2022/04/21 03:11:27;;;;;;;0.50;0.50;;;9.40;61.30;;;;;;5007672;28;20042;-69
2022/04/21 03:13:53;;;;;;;0.38;0.35;;;9.40;61.40;;;;;;4994704;28;20046;-69
2022/04/21 03:16:19;;;;;;;0.40;0.40;;;9.30;61.50;;;;;;4995772;28;20133;-68
2022/04/21 03:18:45;;;;;;;0.88;0.52;;;9.30;61.60;;;;;;5010903;28;20117;-69
2022/04/21 03:26:30;;;;;;;0.50;0.50;;;9.40;61.80;;;;;;4995588;28;20451;-70
2022/04/21 03:28:56;;;;;;;0.60;0.60;;;9.30;61.80;;;;;;4995562;28;20044;-69
2022/04/21 03:31:23;;;;;;;0.70;0.50;;;9.30;61.80;;;;;;5010529;28;20134;-69
2022/04/21 03:33:50;;;;;;;0.40;0.40;;;9.30;61.80;;;;;;4995462;28;20043;-69
2022/04/21 03:36:16;;;;;;;0.65;0.63;;;9.30;61.90;;;;;;5010055;28;20077;-69
2022/04/21 03:38:42;;;;;;;0.85;0.50;;;9.30;61.90;;;;;;4995630;28;20061;-70
2022/04/21 03:41:08;;;;;;;0.50;0.50;;;9.20;61.90;;;;;;5006424;28;20493;-70
2022/04/21 03:43:34;;;;;;;0.55;0.50;;;9.20;61.90;;;;;;4991960;28;20061;-69
2022/04/21 03:45:59;;;;;;;0.57;0.50;;;9.20;62.00;;;;;;4995890;28;20412;-71
2022/04/21 03:48:25;;;;;;;0.47;0.43;;;9.20;62.00;;;;;;4995835;28;20053;-69
2022/04/21 03:50:51;;;;;;;0.50;0.50;;;9.10;62.00;;;;;;4995520;28;20480;-70
2022/04/21 03:53:16;;;;;;;0.50;0.50;;;9.20;62.00;;;;;;4995672;28;20463;-70
2022/04/21 03:55:42;;;;;;;0.85;0.57;;;9.20;62.00;;;;;;5010782;28;20046;-69
2022/04/21 03:58:08;;;;;;;0.50;0.50;;;9.20;62.10;;;;;;4977625;28;20060;-70
2022/04/21 04:00:34;;;;;;;1.10;0.70;;;9.10;62.00;;;;;;4995163;28;20069;-70
2022/04/21 04:02:59;;;;;;;0.57;0.57;;;9.30;62.20;;;;;;4995511;28;20043;-69
2022/04/21 04:05:25;;;;;;;0.68;0.50;;;9.20;62.20;;;;;;4995426;28;20038;-70
2022/04/21 04:13:11;;;;;;;0.38;0.38;;;9.10;62.30;;;;;;4995188;28;20507;-70
2022/04/21 04:15:37;;;;;;;0.60;0.60;;;9.00;62.20;;;;;;5010337;28;20050;-70
2022/04/21 04:18:03;;;;;;;0.80;0.60;;;9.10;62.40;;;;;;4995226;28;20041;-69
2022/04/21 04:20:28;;;;;;;0.40;0.40;;;9.10;62.40;;;;;;4995599;28;20041;-70
2022/04/21 04:22:54;;;;;;;0.45;0.40;;;9.10;62.40;;;;;;4993935;28;20039;-69
2022/04/21 04:25:19;;;;;;;0.60;0.60;;;9.10;62.40;;;;;;4995236;28;20043;-69
2022/04/21 04:27:45;;;;;;;0.93;0.60;;;9.00;62.40;;;;;;4995532;28;20049;-70
2022/04/21 04:30:11;;;;;;;0.40;0.40;;;9.10;62.40;;;;;;4993699;28;20042;-69
2022/04/21 04:32:37;;;;;;;0.50;0.50;;;9.10;62.40;;;;;;4995159;28;20543;-69
2022/04/21 04:35:04;;;;;;;0.65;0.60;;;9.00;62.40;;;;;;5009899;28;20038;-70
2022/04/21 04:37:30;;;;;;;0.95;0.45;;;9.00;62.40;;;;;;4992919;28;20034;-70
2022/04/21 04:39:55;;;;;;;0.70;0.50;;;9.00;62.50;;;;;;4994777;28;20397;-70
2022/04/21 04:42:22;;;;;;;0.40;0.40;;;9.00;62.50;;;;;;4994710;28;20041;-70
2022/04/21 04:46:34;;;;;;;0.52;0.52;;;9.00;62.60;;;;;;4994804;28;20038;-70
2022/04/21 04:47:37;;;;;;;0.75;0.50;;;9.00;62.70;;;;;;5006580;28;20042;-70
2022/04/21 04:50:03;;;;;;;0.40;0.40;;;9.00;62.70;;;;;;4994457;28;20038;-70
2022/04/21 04:52:29;;;;;;;0.52;0.50;;;9.00;62.70;;;;;;4994804;28;20035;-70
2022/04/21 04:54:56;;;;;;;0.50;0.50;;;9.00;62.70;;;;;;4994831;28;20041;-70
2022/04/21 04:57:22;;;;;;;0.82;0.60;;;9.00;62.80;;;;;;4994577;28;20129;-70
2022/04/21 04:59:48;;;;;;;0.40;0.40;;;9.00;62.80;;;;;;5009454;28;20082;-70
2022/04/21 05:02:14;;;;;;;0.45;0.45;;;9.00;62.80;;;;;;4994326;28;20042;-70
2022/04/21 05:04:40;;;;;;;0.60;0.60;;;9.00;62.90;;;;;;5009237;28;20042;-70
2022/04/21 05:07:06;;;;;;;1.05;0.77;;;9.00;62.90;;;;;;4993003;28;20034;-70
2022/04/21 05:09:31;;;;;;;0.60;0.50;;;8.90;62.90;;;;;;5009110;28;20125;-70
2022/04/21 05:11:57;;;;;;;2.55;0.70;;;9.00;62.90;;;;;;5009943;28;20050;-70
2022/04/21 05:14:24;;;;;;;0.60;0.60;;;8.90;62.90;;;;;;4994007;28;20488;-70
2022/04/21 05:16:51;;;;;;;0.50;0.40;;;9.00;63.00;;;;;;4994320;28;20042;-69
2022/04/21 05:19:19;;;;;;;0.65;0.30;;;9.00;63.00;;;;;;4994464;28;20034;-70
2022/04/21 05:21:46;;;;;;;0.52;0.52;;;8.90;63.00;;;;;;5009603;28;20038;-70
2022/04/21 05:24:13;;;;;;;1.73;0.70;;;9.00;63.10;;;;;;4994669;28;20227;-70
2022/04/21 05:26:40;;;;;;;0.50;0.50;;;8.90;63.00;;;;;;5009266;28;20085;-70
2022/04/21 05:31:53;;;;;;;0.60;0.40;;;9.00;63.10;;;;;;5007475;28;20050;-72
2022/04/21 05:34:19;;;;;;;0.63;0.50;;;9.00;63.10;;;;;;4994313;28;20095;-69
2022/04/21 05:36:45;;;;;;;0.63;0.55;;;9.00;63.00;;;;;;4992255;28;20504;-70
2022/04/21 05:39:11;;;;;;;0.70;0.60;;;9.00;63.10;;;;;;4994002;28;20084;-71
2022/04/21 05:41:37;;;;;;;0.40;0.40;;;9.10;63.20;;;;;;4993734;28;20116;-70
2022/04/21 05:44:06;;;;;;;0.40;0.40;;;9.10;63.10;;;;;;4993740;28;20496;-69
2022/04/21 05:46:32;;;;;;;0.45;0.45;;;9.10;63.10;;;;;;4993643;28;20035;-70
2022/04/21 05:48:58;;;;;;;0.38;0.38;;;9.10;63.00;;;;;;4993571;28;20496;-70
2022/04/21 05:51:24;;;;;;;1.25;0.55;;;9.20;63.10;;;;;;4993940;28;20062;-70
2022/04/21 05:53:51;;;;;;;1.20;0.73;;;9.20;63.10;;;;;;5008448;28;20076;-69
2022/04/21 05:56:17;;;;;;;0.30;0.30;;;9.20;63.10;;;;;;4993543;28;20054;-69
2022/04/21 05:58:43;;;;;;;0.40;0.40;;;9.20;63.10;;;;;;4994041;28;20531;-70
2022/04/21 06:01:09;;;;;;;0.40;0.40;;;9.30;63.10;;;;;;4993502;28;20103;-69
2022/04/21 06:03:37;;;;;;;0.45;0.38;;;9.40;63.10;;;;;;4993579;28;20436;-69
2022/04/21 06:06:06;;;;;;;0.50;0.50;;;9.30;63.00;;;;;;4993590;28;20054;-70
2022/04/21 06:08:32;;;;;;;0.70;0.50;;;9.40;63.00;;;;;;4993493;28;20042;-70
2022/04/21 06:10:58;;;;;;;0.57;0.52;;;9.50;62.90;;;;;;4993688;28;20125;-70
2022/04/21 06:13:26;;;;;;;0.70;0.63;;;9.60;62.90;;;;;;4993424;28;20440;-70
2022/04/21 06:15:52;;;;;;;0.43;0.43;;;9.60;62.80;;;;;;4993154;28;20046;-70
2022/04/21 06:18:18;;;;;;;0.70;0.60;;;9.60;62.70;;;;;;4993727;28;20485;-70
2022/04/21 06:20:46;;;;;;;0.93;0.50;;;9.60;62.60;;;;;;4992384;28;20043;-70
2022/04/21 06:23:12;;;;;;;1.45;0.80;;;9.70;62.70;;;;;;5008788;28;20038;-70
2022/04/21 06:25:38;;;;;;;0.50;0.50;;;9.70;62.70;;;;;;4993232;28;20046;-70
2022/04/21 06:28:04;;;;;;;0.38;0.38;;;9.80;62.70;;;;;;4993171;28;20089;-71
2022/04/21 06:30:31;;;;;;;0.90;0.60;;;9.80;62.70;;;;;;5008524;28;20049;-70
2022/04/21 06:32:58;;;;;;;0.45;0.40;;;9.80;62.60;;;;;;4993048;28;20047;-70
2022/04/21 06:35:25;;;;;;;0.43;0.40;;;9.90;62.60;;;;;;5008162;28;20125;-70
2022/04/21 06:37:52;;;;;;;0.68;0.60;;;9.90;62.50;;;;;;5007782;28;20078;-70
2022/04/21 06:40:18;;;;;;;0.50;0.50;;;10.00;62.60;;;;;;4993360;28;20038;-70
2022/04/21 06:42:43;;;;;;;0.70;0.50;;;10.20;62.60;;;;;;5008025;28;20043;-70
2022/04/21 06:50:25;;;;;;;0.70;0.50;;;10.20;62.40;;;;;;4992578;28;20042;-70
2022/04/21 06:52:52;;;;;;;0.40;0.40;;;10.20;62.30;;;;;;4993376;28;20503;-70
2022/04/21 06:55:17;;;;;;;0.80;0.60;;;10.30;62.20;;;;;;4992864;28;20049;-70
2022/04/21 06:57:43;;;;;;;0.68;0.60;;;10.30;62.20;;;;;;5008028;28;20132;-70
2022/04/21 07:00:09;;;;;;;0.50;0.50;;;10.40;62.20;;;;;;4992834;28;20097;-70
2022/04/21 07:02:38;;;;;;;0.63;0.50;;;10.40;62.20;;;;;;5007926;28;20129;-70
2022/04/21 07:05:06;;;;;;;0.98;0.70;;;10.50;62.20;;;;;;5007528;28;20510;-70
2022/04/21 07:07:32;;;;;;;0.57;0.50;;;10.50;62.20;;;;;;4992633;28;20546;-70
2022/04/21 07:09:58;;;;;;;0.73;0.60;;;10.50;62.10;;;;;;4993098;28;20042;-70
2022/04/21 07:12:28;;;;;;;0.50;0.50;;;10.60;62.10;;;;;;4992879;28;20041;-70
2022/04/21 07:14:55;;;;;;;0.50;0.50;;;10.60;62.10;;;;;;5006601;28;20076;-70
2022/04/21 07:17:21;;;;;;;0.60;0.50;;;10.70;62.00;;;;;;4992367;28;20053;-70
2022/04/21 07:19:48;;;;;;;0.98;0.63;;;10.80;62.00;;;;;;4992507;28;20050;-71
2022/04/21 07:22:25;;;;;;;0.60;0.55;;;10.80;62.00;;;;;;4992994;28;20038;-71
2022/04/21 07:24:51;;;;;;;0.88;0.45;;;10.80;61.90;;;;;;4992732;28;20400;-71
2022/04/21 07:27:17;;;;;;;0.50;0.50;;;10.90;61.80;;;;;;4991250;28;20045;-71
2022/04/21 07:29:42;;;;;;;0.52;0.50;;;10.90;61.80;;;;;;4992596;28;20430;-71
2022/04/21 07:32:09;;;;;;;0.40;0.40;;;11.00;61.70;;;;;;5008103;28;20053;-71
2022/04/21 07:34:35;;;;;;;0.52;0.50;;;11.00;61.70;;;;;;5007333;28;20564;-71
2022/04/21 07:37:00;;;;;;;0.77;0.57;;;11.10;61.60;;;;;;4992791;28;20129;-71
2022/04/21 07:39:26;;;;;;;0.55;0.47;;;11.10;61.60;;;;;;4992238;28;20480;-71
2022/04/21 07:41:52;;;;;;;0.60;0.50;;;11.10;61.50;;;;;;4992377;28;20039;-71
2022/04/21 07:44:18;;;;;;;0.63;0.52;;;11.20;61.40;;;;;;4992261;28;20097;-71
2022/04/21 07:46:43;;;;;;;0.45;0.45;;;11.30;61.30;;;;;;4992444;28;20050;-71
2022/04/21 07:51:49;;;;;;;0.43;0.43;;;11.50;61.00;;;;;;4992123;28;20153;-72
2022/04/21 07:54:15;;;;;;;0.40;0.40;;;11.50;60.70;;;;;;4991931;28;20508;-71
2022/04/21 07:56:41;;;;;;;0.75;0.50;;;11.70;60.50;;;;;;5007099;28;20500;-72
2022/04/21 07:59:06;;;;;;;0.50;0.50;;;11.80;60.30;;;;;;4993702;28;20034;-71
2022/04/21 08:01:32;;;;;;;0.43;0.43;;;11.90;60.10;;;;;;4995847;28;20034;-71
2022/04/21 08:04:02;;;;;;;0.60;0.47;;;12.10;59.90;;;;;;4995308;28;20552;-71
2022/04/21 08:06:29;;;;;;;0.70;0.40;;;12.30;59.60;;;;;;4995498;28;20045;-72
2022/04/21 08:08:55;;;;;;;0.73;0.60;;;12.40;59.40;;;;;;4995249;28;20038;-71
2022/04/21 08:11:21;;;;;;;0.40;0.40;;;12.60;59.10;;;;;;4993618;28;20034;-71
2022/04/21 08:13:47;;;;;;;0.50;0.50;;;12.80;58.90;;;;;;4994862;28;20030;-71
2022/04/21 08:16:13;;;;;;;0.63;0.60;;;12.90;58.70;;;;;;4993821;28;20512;-71
2022/04/21 08:18:39;;;;;;;0.60;0.60;;;13.10;58.50;;;;;;5009995;28;20173;-72
2022/04/21 08:21:06;;;;;;;0.60;0.57;;;13.30;58.30;;;;;;4995237;28;20096;-72
2022/04/21 08:23:36;;;;;;;0.63;0.50;;;13.40;58.00;;;;;;4995180;28;20070;-71
2022/04/21 08:34:06;;;;;;;0.40;0.40;;;14.00;57.40;;;;;;4994665;28;20039;-72
2022/04/21 08:36:31;;;;;;;0.73;0.50;;;14.20;57.30;;;;;;4993296;28;20042;-71
2022/04/21 08:38:57;;;;;;;0.65;0.60;;;14.20;57.20;;;;;;4994690;28;20046;-72
2022/04/21 08:41:27;;;;;;;0.95;0.63;;;14.40;57.10;;;;;;4995162;28;20089;-72
2022/04/21 08:43:55;;;;;;;0.60;0.40;;;14.40;57.00;;;;;;4994851;28;20042;-71
2022/04/21 08:46:25;;;;;;;0.75;0.50;;;14.50;57.00;;;;;;4994972;28;20048;-72
2022/04/21 08:48:52;;;;;;;1.13;0.55;;;14.70;57.00;;;;;;4994419;28;20038;-72
2022/04/21 08:51:20;;;;;;;0.60;0.60;;;14.80;56.80;;;;;;5009465;28;20038;-72
2022/04/21 08:53:46;;;;;;;0.40;0.40;;;14.90;56.70;;;;;;4994463;28;20108;-72
2022/04/21 08:56:12;;;;;;;0.40;0.40;;;15.00;56.60;;;;;;5009521;28;20125;-72
2022/04/21 08:58:38;;;;;;;1.17;0.50;;;14.90;56.60;;;;;;5009466;28;20046;-71
2022/04/21 09:01:04;;;;;;;0.60;0.60;;;15.00;56.60;;;;;;4994270;28;20408;-71
2022/04/21 09:03:33;;;;;;;0.63;0.50;;;15.10;56.50;;;;;;5009358;28;20053;-71
2022/04/21 09:06:00;;;;;;;0.70;0.63;;;15.20;56.60;;;;;;4994733;28;20054;-72
2022/04/21 09:08:27;;;;;;;0.70;0.50;;;15.40;56.30;;;;;;4994252;28;20511;-72
2022/04/21 09:11:11;;;;;;;0.60;0.50;;;15.50;56.20;;;;;;4993070;28;20057;-71
2022/04/21 09:13:39;;;;;;;0.30;0.30;;;15.60;56.00;;;;;;4994605;28;20050;-72
2022/04/21 09:16:10;;;;;;;0.50;0.50;;;15.60;56.10;;;;;;4989958;28;20476;-71
2022/04/21 09:18:45;;;;;;;0.60;0.60;;;15.80;56.00;;;;;;4993036;28;20469;-71
2022/04/21 09:21:14;;;;;;;0.60;0.60;;;15.90;55.70;;;;;;4993092;28;20069;-71
2022/04/21 09:23:40;;;;;;;0.50;0.50;;;15.90;55.70;;;;;;4994565;28;20157;-72
2022/04/21 09:26:08;;;;;;;0.50;0.50;;;16.00;55.80;;;;;;4994632;28;20051;-72
2022/04/21 09:28:34;;;;;;;0.90;0.50;;;16.00;55.70;;;;;;5009164;28;20038;-71
2022/04/21 09:31:01;;;;;;;0.52;0.50;;;16.20;55.80;;;;;;4994461;28;20042;-72
2022/04/21 09:33:31;;;;;;;1.52;0.40;;;16.20;55.50;;;;;;4993801;28;20073;-71
2022/04/21 09:35:58;;;;;;;1.52;0.47;;;16.20;55.60;;;;;;4992646;28;20040;-71
2022/04/21 09:38:24;;;;;;;0.50;0.50;;;16.20;55.60;;;;;;4994041;28;20038;-72
2022/04/21 09:40:50;;;;;;;0.75;0.60;;;16.30;55.40;;;;;;5008705;28;20125;-71
2022/04/21 09:43:35;;;;;;;0.60;0.60;;;16.30;55.50;;;;;;4992433;28;21009;-71
2022/04/21 09:46:17;;;;;;;0.57;0.57;;;16.40;55.30;;;;;;4992697;28;20042;-71
2022/04/21 09:48:44;;;;;;;0.85;0.60;;;16.40;55.30;;;;;;4992776;28;20097;-71
2022/04/21 09:51:13;;;;;;;1.08;0.43;;;16.40;55.30;;;;;;4993875;28;20046;-71
2022/04/21 09:53:58;;;;;;;0.40;0.40;;;16.60;55.30;;;;;;5009166;28;20065;-71
2022/04/21 09:56:37;;;;;;;0.47;0.47;;;16.50;55.10;;;;;;5005024;28;20050;-71
2022/04/21 09:59:05;;;;;;;1.60;0.60;;;16.70;55.20;;;;;;4993813;28;20126;-71
2022/04/21 10:01:33;;;;;;;0.68;0.50;;;16.60;55.10;;;;;;4993525;28;20049;-71
2022/04/21 10:03:59;;;;;;;0.50;0.50;;;16.70;54.90;;;;;;4976150;28;20400;-71
2022/04/21 10:06:26;;;;;;;0.50;0.50;;;16.70;54.80;;;;;;4993398;28;20041;-71
2022/04/21 10:08:52;;;;;;;0.60;0.60;;;16.80;54.80;;;;;;4992773;28;20546;-72
2022/04/21 10:11:24;;;;;;;0.60;0.60;;;16.70;54.60;;;;;;4993885;28;20046;-71
2022/04/21 10:13:55;;;;;;;0.60;0.60;;;16.70;54.60;;;;;;4990001;28;20507;-71
2022/04/21 10:16:28;;;;;;;0.95;0.50;;;16.60;54.70;;;;;;4993208;28;20042;-71
2022/04/21 10:18:57;;;;;;;0.63;0.55;;;16.70;54.60;;;;;;4993222;28;20048;-71
2022/04/21 10:21:48;;;;;;;0.80;0.60;;;16.70;54.60;;;;;;4993251;28;20039;-71
2022/04/21 10:24:22;;;;;;;0.60;0.60;;;16.70;54.40;;;;;;4991971;28;20053;-71
2022/04/21 10:26:48;;;;;;;1.02;0.65;;;16.70;54.20;;;;;;4991668;28;20050;-71
2022/04/21 10:29:17;;;;;;;0.88;0.68;;;16.70;54.20;;;;;;4993600;28;20543;-71
2022/04/21 10:31:46;;;;;;;1.05;0.65;;;16.70;54.30;;;;;;4993239;28;20050;-71
2022/04/21 10:34:31;;;;;;;0.52;0.52;;;16.80;54.10;;;;;;4993329;28;20042;-71
2022/04/21 10:37:20;;;;;;;1.50;0.50;;;17.00;53.90;;;;;;4992892;28;20074;-71
2022/04/21 10:40:04;;;;;;;0.40;0.40;;;16.90;53.70;;;;;;5006284;28;20042;-71
2022/04/21 10:42:50;;;;;;;1.02;0.60;;;17.00;53.50;;;;;;4991308;28;20069;-71
2022/04/21 10:45:22;;;;;;;0.43;0.43;;;17.00;53.50;;;;;;5005304;28;20125;-71
2022/04/21 10:48:09;;;;;;;0.52;0.52;;;16.90;53.40;;;;;;4993055;28;20137;-71
2022/04/21 10:50:38;;;;;;;0.40;0.40;;;16.90;53.40;;;;;;4992957;28;20042;-71
2022/04/21 10:58:49;;;;;;;0.40;0.40;;;16.90;53.20;;;;;;4992753;28;20522;-71
2022/04/21 11:01:18;;;;;;;0.50;0.50;;;16.90;53.00;;;;;;5005571;28;20046;-71
2022/04/21 11:03:46;;;;;;;0.57;0.50;;;17.00;53.10;;;;;;5008107;28;20117;-71
2022/04/21 11:06:14;;;;;;;0.80;0.60;;;16.90;52.80;;;;;;5007632;28;20054;-70
2022/04/21 11:08:41;;;;;;;0.60;0.43;;;17.00;52.70;;;;;;4992827;28;20161;-71
2022/04/21 11:11:07;;;;;;;0.40;0.40;;;17.00;52.70;;;;;;4993217;28;20034;-71
2022/04/21 11:14:03;;;;;;;0.95;0.50;;;17.00;52.50;;;;;;5007866;28;20588;-71
2022/04/21 11:16:48;;;;;;;0.70;0.55;;;17.10;52.50;;;;;;4992149;28;20046;-71
2022/04/21 11:19:36;;;;;;;0.80;0.60;;;17.10;52.40;;;;;;4992461;28;20030;-71
2022/04/21 11:22:06;;;;;;;1.35;0.55;;;17.20;52.10;;;;;;4991140;28;20043;-72
2022/04/21 11:25:01;;;;;;;0.40;0.40;;;17.30;51.90;;;;;;4992696;28;20130;-71
2022/04/21 11:27:28;;;;;;;0.63;0.63;;;17.30;51.70;;;;;;4992717;28;20133;-71
2022/04/21 11:30:05;;;;;;;0.50;0.50;;;17.20;51.70;;;;;;4992314;28;20042;-71
2022/04/21 11:32:31;;;;;;;0.55;0.45;;;17.00;51.80;;;;;;4991087;28;20081;-70
2022/04/21 11:35:09;;;;;;;0.60;0.60;;;16.80;52.00;;;;;;4994600;28;20827;-71
2022/04/21 11:37:56;;;;;;;0.50;0.50;;;16.80;52.10;;;;;;4995725;28;20077;-71
2022/04/21 11:40:26;;;;;;;0.52;0.52;;;16.80;51.90;;;;;;4995565;28;20041;-71
2022/04/21 11:42:53;;;;;;;0.50;0.50;;;17.00;51.70;;;;;;4995761;28;20045;-71
2022/04/21 11:45:21;;;;;;;0.75;0.60;;;17.10;51.60;;;;;;4996239;28;20038;-71
2022/04/21 11:47:46;;;;;;;0.40;0.40;;;17.00;51.20;;;;;;4995781;28;20488;-71
2022/04/21 11:50:19;;;;;;;0.70;0.57;;;17.20;51.00;;;;;;5010656;28;20054;-71
2022/04/21 11:52:46;;;;;;;0.70;0.70;;;17.20;50.80;;;;;;4995549;28;20058;-71
2022/04/21 11:55:15;;;;;;;0.93;0.60;;;17.40;50.80;;;;;;5010868;28;20049;-71
2022/04/21 11:57:42;;;;;;;0.50;0.50;;;17.40;50.50;;;;;;4995373;28;20353;-71
2022/04/21 12:00:09;;;;;;;0.80;0.80;;;17.40;50.40;;;;;;5010590;28;20042;-71
2022/04/21 12:06:28;;;;;;;0.40;0.40;;;17.50;50.50;;;;;;4995427;28;20105;-72
2022/04/21 12:08:02;;;;;;;0.98;0.73;;;17.50;50.60;;;;;;5007882;28;20050;-71
2022/04/21 12:10:28;;;;;;;0.70;0.60;;;17.60;50.50;;;;;;4995239;28;20038;-71
2022/04/21 12:12:54;;;;;;;0.52;0.50;;;17.60;50.30;;;;;;4995580;28;20042;-69
2022/04/21 12:15:36;;;;;;;0.60;0.60;;;17.70;50.20;;;;;;5010414;28;20043;-69
2022/04/21 12:18:02;;;;;;;0.60;0.60;;;17.90;50.00;;;;;;4994517;28;20034;-69
2022/04/21 12:20:28;;;;;;;0.73;0.60;;;18.00;49.90;;;;;;5009911;28;20125;-69
2022/04/21 12:22:56;;;;;;;0.60;0.60;;;18.10;50.30;;;;;;4995044;28;20092;-69
2022/04/21 12:25:30;;;;;;;0.70;0.70;;;18.10;49.60;;;;;;4994826;28;20042;-69
2022/04/21 12:28:02;;;;;;;0.70;0.68;;;18.00;49.50;;;;;;4993310;28;20042;-71
2022/04/21 12:30:28;;;;;;;0.57;0.57;;;17.90;49.60;;;;;;5009709;28;20046;-71
2022/04/21 12:32:54;;;;;;;0.77;0.70;;;17.90;50.00;;;;;;5010707;28;20042;-71
2022/04/21 12:35:49;;;;;;;0.95;0.60;;;17.80;50.10;;;;;;4995093;28;20097;-72
2022/04/21 12:40:59;;;;;;;0.82;0.60;;;17.70;50.10;;;;;;4993607;28;20125;-71
2022/04/21 12:43:28;;;;;;;0.80;0.68;;;17.70;50.10;;;;;;4992746;28;20042;-69
2022/04/21 12:45:55;;;;;;;0.77;0.68;;;17.60;50.20;;;;;;4994201;28;20039;-69
2022/04/21 12:48:23;;;;;;;0.80;0.80;;;17.60;50.20;;;;;;4994679;28;20082;-72
2022/04/21 12:50:50;;;;;;;0.68;0.68;;;17.70;50.00;;;;;;4994414;28;20050;-70
2022/04/21 12:53:32;;;;;;;1.10;0.70;;;17.70;49.90;;;;;;4994595;28;20057;-70
2022/04/21 12:56:14;;;;;;;1.77;0.82;;;17.70;50.00;;;;;;4993196;28;20046;-70
2022/04/21 12:58:44;;;;;;;0.70;0.70;;;17.70;49.90;;;;;;4994646;28;20121;-70
2022/04/21 13:01:10;;;;;;;0.73;0.73;;;17.70;49.90;;;;;;5009174;28;20121;-70
2022/04/21 13:03:38;;;;;;;1.27;0.70;;;17.70;50.60;;;;;;4994567;28;20093;-70
2022/04/21 13:06:04;;;;;;;0.90;0.82;;;17.70;50.00;;;;;;4994738;28;20042;-71
2022/04/21 13:08:30;;;;;;;0.70;0.60;;;17.80;50.00;;;;;;4993722;28;20057;-70
2022/04/21 13:10:57;;;;;;;0.73;0.73;;;17.70;50.10;;;;;;4994989;28;20050;-70
2022/04/21 13:13:24;;;;;;;1.20;0.85;;;17.70;50.20;;;;;;4994238;28;20061;-71
2022/04/21 13:15:50;;;;;;;1.30;0.70;;;17.80;50.20;;;;;;4994854;28;20057;-70
2022/04/21 13:18:17;;;;;;;0.73;0.73;;;17.80;50.00;;;;;;4994371;28;20034;-70
2022/04/21 13:23:24;;;;;;;0.68;0.60;;;17.90;49.90;;;;;;4993992;28;20047;-71
2022/04/21 13:25:49;;;;;;;0.80;0.80;;;17.90;50.00;;;;;;4994253;28;20497;-71
2022/04/21 13:28:15;;;;;;;0.73;0.50;;;17.90;50.10;;;;;;4994563;28;20074;-71
2022/04/21 13:30:41;;;;;;;0.80;0.70;;;17.90;50.10;;;;;;4993861;28;20046;-71
2022/04/21 13:33:21;;;;;;;0.70;0.60;;;18.00;50.10;;;;;;5009432;28;20042;-72
2022/04/21 13:35:50;;;;;;;2.35;0.70;;;17.90;50.10;;;;;;5005579;28;20042;-71
2022/04/21 13:38:17;;;;;;;1.00;0.70;;;17.90;50.30;;;;;;4974591;28;20061;-71
2022/04/21 13:40:44;;;;;;;0.60;0.60;;;17.80;50.40;;;;;;4993701;28;20042;-72
2022/04/21 13:43:10;;;;;;;0.82;0.73;;;17.80;50.30;;;;;;4992376;28;20417;-71
2022/04/21 13:45:39;;;;;;;0.50;0.50;;;17.80;50.30;;;;;;4993064;28;20046;-72
2022/04/21 13:48:09;;;;;;;0.68;0.68;;;17.80;50.30;;;;;;4992888;28;20049;-72
2022/04/21 13:50:35;;;;;;;0.68;0.60;;;17.90;50.30;;;;;;5009099;28;20395;-72
2022/04/21 13:53:02;;;;;;;0.95;0.50;;;18.00;50.20;;;;;;4993411;28;20046;-72